Terminal Aerodrome Forecast
Issued by NWS Omaha/Valley, NE

Home | Current Version | Previous Version | Text Only | Print | Product List | Glossary On
Versions: 1 2 3 4 5 6 7 8 9 10 11 12 13 14 15 16 17 18 19 20 21 22 23 24 25 26 27 28 29 30 31 32 33 34 35 36 37 38 39 40 41
296
FTUS43 KOAX 282001 AAA
TAFOMA
TAF AMD
KOMA 282001Z 2820/2918 04014KT 2SM -DZ BR OVC012
     FM282200 04013G21KT 5SM BR OVC008
     FM290100 02012KT P6SM OVC010
     FM290500 01011KT P6SM OVC025
     FM290900 02013G23KT P6SM OVC025 WS020/06040KT
     FM291200 03014G23KT 4SM -RA OVC015 WS020/06040KT=

USA.gov is the U.S. government's official web portal to all federal, state and local government web resources and services.